sensor_id;sensor_type;location;lat;lon;timestamp;P1;durP1;ratioP1;P2;durP2;ratioP2
46230;SDS011;31949;51.404;-0.038;2024-02-21T00:00:31;9.60;;;2.50;;
46230;SDS011;31949;51.404;-0.038;2024-02-21T00:02:58;13.25;;;2.85;;
46230;SDS011;31949;51.404;-0.038;2024-02-21T00:05:28;10.50;;;2.40;;
46230;SDS011;31949;51.404;-0.038;2024-02-21T00:07:57;11.98;;;3.15;;
46230;SDS011;31949;51.404;-0.038;2024-02-21T00:10:26;12.77;;;3.55;;
46230;SDS011;31949;51.404;-0.038;2024-02-21T00:12:53;8.18;;;2.40;;
46230;SDS011;31949;51.404;-0.038;2024-02-21T00:15:20;9.98;;;2.50;;
46230;SDS011;31949;51.404;-0.038;2024-02-21T00:17:48;9.98;;;3.47;;
46230;SDS011;31949;51.404;-0.038;2024-02-21T00:20:15;14.95;;;3.58;;
46230;SDS011;31949;51.404;-0.038;2024-02-21T00:22:43;9.65;;;3.05;;
46230;SDS011;31949;51.404;-0.038;2024-02-21T00:25:10;6.90;;;2.60;;
46230;SDS011;31949;51.404;-0.038;2024-02-21T00:27:38;7.63;;;2.92;;
46230;SDS011;31949;51.404;-0.038;2024-02-21T00:30:06;9.65;;;3.45;;
46230;SDS011;31949;51.404;-0.038;2024-02-21T00:32:33;8.88;;;3.17;;
46230;SDS011;31949;51.404;-0.038;2024-02-21T00:35:01;11.07;;;2.80;;
46230;SDS011;31949;51.404;-0.038;2024-02-21T00:37:28;16.45;;;3.28;;
46230;SDS011;31949;51.404;-0.038;2024-02-21T00:39:56;10.45;;;2.72;;
46230;SDS011;31949;51.404;-0.038;2024-02-21T00:42:23;17.35;;;3.80;;
46230;SDS011;31949;51.404;-0.038;2024-02-21T00:44:50;12.20;;;3.28;;
46230;SDS011;31949;51.404;-0.038;2024-02-21T00:47:17;11.85;;;3.28;;
46230;SDS011;31949;51.404;-0.038;2024-02-21T00:49:44;11.70;;;3.42;;
46230;SDS011;31949;51.404;-0.038;2024-02-21T00:52:12;15.70;;;3.17;;
46230;SDS011;31949;51.404;-0.038;2024-02-21T00:54:39;12.68;;;2.92;;
46230;SDS011;31949;51.404;-0.038;2024-02-21T00:57:19;9.35;;;3.58;;
46230;SDS011;31949;51.404;-0.038;2024-02-21T00:59:46;20.23;;;2.65;;
46230;SDS011;31949;51.404;-0.038;2024-02-21T01:02:14;11.10;;;3.55;;
46230;SDS011;31949;51.404;-0.038;2024-02-21T01:04:41;12.82;;;3.03;;
46230;SDS011;31949;51.404;-0.038;2024-02-21T01:07:09;10.55;;;2.72;;
46230;SDS011;31949;51.404;-0.038;2024-02-21T01:09:36;11.32;;;2.58;;
46230;SDS011;31949;51.404;-0.038;2024-02-21T01:12:03;11.23;;;2.10;;
46230;SDS011;31949;51.404;-0.038;2024-02-21T01:14:31;13.73;;;2.55;;
46230;SDS011;31949;51.404;-0.038;2024-02-21T01:16:58;11.02;;;2.80;;
46230;SDS011;31949;51.404;-0.038;2024-02-21T01:19:25;11.88;;;3.83;;
46230;SDS011;31949;51.404;-0.038;2024-02-21T01:21:53;9.65;;;2.88;;
46230;SDS011;31949;51.404;-0.038;2024-02-21T01:24:20;8.35;;;2.38;;
46230;SDS011;31949;51.404;-0.038;2024-02-21T01:26:48;12.55;;;3.17;;
46230;SDS011;31949;51.404;-0.038;2024-02-21T01:29:16;11.40;;;2.47;;
46230;SDS011;31949;51.404;-0.038;2024-02-21T01:31:43;9.20;;;2.45;;
46230;SDS011;31949;51.404;-0.038;2024-02-21T01:34:10;11.70;;;2.20;;
46230;SDS011;31949;51.404;-0.038;2024-02-21T01:36:38;13.27;;;2.47;;
46230;SDS011;31949;51.404;-0.038;2024-02-21T01:39:05;10.45;;;2.83;;
46230;SDS011;31949;51.404;-0.038;2024-02-21T01:41:32;8.90;;;2.83;;
46230;SDS011;31949;51.404;-0.038;2024-02-21T01:43:59;10.45;;;2.55;;
46230;SDS011;31949;51.404;-0.038;2024-02-21T01:46:27;9.90;;;2.95;;
46230;SDS011;31949;51.404;-0.038;2024-02-21T01:48:56;10.23;;;3.35;;
46230;SDS011;31949;51.404;-0.038;2024-02-21T01:51:24;13.00;;;2.80;;
46230;SDS011;31949;51.404;-0.038;2024-02-21T01:53:52;11.57;;;2.33;;
46230;SDS011;31949;51.404;-0.038;2024-02-21T01:56:22;12.48;;;2.63;;
46230;SDS011;31949;51.404;-0.038;2024-02-21T01:58:49;11.07;;;2.80;;
46230;SDS011;31949;51.404;-0.038;2024-02-21T02:01:18;10.02;;;2.75;;
46230;SDS011;31949;51.404;-0.038;2024-02-21T02:03:48;14.73;;;3.30;;
46230;SDS011;31949;51.404;-0.038;2024-02-21T02:06:16;8.80;;;2.38;;
46230;SDS011;31949;51.404;-0.038;2024-02-21T02:08:43;10.02;;;3.80;;
46230;SDS011;31949;51.404;-0.038;2024-02-21T02:11:13;17.55;;;3.88;;
46230;SDS011;31949;51.404;-0.038;2024-02-21T02:13:41;12.68;;;3.60;;
46230;SDS011;31949;51.404;-0.038;2024-02-21T02:16:08;10.80;;;3.42;;
46230;SDS011;31949;51.404;-0.038;2024-02-21T02:18:36;10.95;;;3.22;;
46230;SDS011;31949;51.404;-0.038;2024-02-21T02:21:04;10.02;;;2.92;;
46230;SDS011;31949;51.404;-0.038;2024-02-21T02:23:40;13.15;;;3.00;;
46230;SDS011;31949;51.404;-0.038;2024-02-21T02:26:08;9.10;;;2.80;;
46230;SDS011;31949;51.404;-0.038;2024-02-21T02:28:36;15.93;;;4.63;;
46230;SDS011;31949;51.404;-0.038;2024-02-21T02:31:03;17.00;;;4.00;;
46230;SDS011;31949;51.404;-0.038;2024-02-21T02:33:30;12.77;;;2.90;;
46230;SDS011;31949;51.404;-0.038;2024-02-21T02:35:57;11.00;;;3.05;;
46230;SDS011;31949;51.404;-0.038;2024-02-21T02:38:25;17.50;;;3.85;;
46230;SDS011;31949;51.404;-0.038;2024-02-21T02:40:52;20.25;;;4.00;;
46230;SDS011;31949;51.404;-0.038;2024-02-21T02:43:20;10.13;;;2.80;;
46230;SDS011;31949;51.404;-0.038;2024-02-21T02:45:47;18.02;;;4.68;;
46230;SDS011;31949;51.404;-0.038;2024-02-21T02:48:14;16.83;;;5.35;;
46230;SDS011;31949;51.404;-0.038;2024-02-21T02:50:42;13.98;;;4.07;;
46230;SDS011;31949;51.404;-0.038;2024-02-21T02:53:09;11.35;;;3.10;;
46230;SDS011;31949;51.404;-0.038;2024-02-21T02:55:37;11.85;;;3.53;;
46230;SDS011;31949;51.404;-0.038;2024-02-21T02:58:04;13.13;;;3.38;;
46230;SDS011;31949;51.404;-0.038;2024-02-21T03:00:31;16.67;;;4.10;;
46230;SDS011;31949;51.404;-0.038;2024-02-21T03:03:03;13.98;;;4.38;;
46230;SDS011;31949;51.404;-0.038;2024-02-21T03:08:02;13.80;;;2.50;;
46230;SDS011;31949;51.404;-0.038;2024-02-21T03:10:33;11.65;;;2.83;;
46230;SDS011;31949;51.404;-0.038;2024-02-21T03:13:01;14.73;;;3.67;;
46230;SDS011;31949;51.404;-0.038;2024-02-21T03:15:28;9.57;;;2.65;;
46230;SDS011;31949;51.404;-0.038;2024-02-21T03:17:55;12.15;;;3.70;;
46230;SDS011;31949;51.404;-0.038;2024-02-21T03:20:23;12.90;;;3.13;;
46230;SDS011;31949;51.404;-0.038;2024-02-21T03:22:50;11.20;;;2.88;;
46230;SDS011;31949;51.404;-0.038;2024-02-21T03:25:17;13.23;;;3.95;;
46230;SDS011;31949;51.404;-0.038;2024-02-21T03:27:46;10.23;;;2.42;;
46230;SDS011;31949;51.404;-0.038;2024-02-21T03:30:13;11.02;;;3.00;;
46230;SDS011;31949;51.404;-0.038;2024-02-21T03:32:41;8.65;;;3.22;;
46230;SDS011;31949;51.404;-0.038;2024-02-21T03:35:08;8.77;;;2.58;;
46230;SDS011;31949;51.404;-0.038;2024-02-21T03:37:36;10.55;;;2.75;;
46230;SDS011;31949;51.404;-0.038;2024-02-21T03:40:06;9.98;;;2.40;;
46230;SDS011;31949;51.404;-0.038;2024-02-21T03:42:35;10.93;;;3.97;;
46230;SDS011;31949;51.404;-0.038;2024-02-21T03:45:02;10.02;;;3.13;;
46230;SDS011;31949;51.404;-0.038;2024-02-21T03:47:30;9.43;;;2.50;;
46230;SDS011;31949;51.404;-0.038;2024-02-21T03:49:57;15.68;;;2.30;;
46230;SDS011;31949;51.404;-0.038;2024-02-21T03:52:26;8.68;;;2.45;;
46230;SDS011;31949;51.404;-0.038;2024-02-21T03:54:53;8.10;;;2.10;;
46230;SDS011;31949;51.404;-0.038;2024-02-21T03:57:21;11.57;;;2.85;;
46230;SDS011;31949;51.404;-0.038;2024-02-21T03:59:51;12.70;;;3.03;;
46230;SDS011;31949;51.404;-0.038;2024-02-21T04:02:19;12.65;;;2.83;;
46230;SDS011;31949;51.404;-0.038;2024-02-21T04:04:46;9.68;;;2.40;;
46230;SDS011;31949;51.404;-0.038;2024-02-21T04:07:14;7.88;;;3.05;;
46230;SDS011;31949;51.404;-0.038;2024-02-21T04:09:42;12.25;;;3.45;;
46230;SDS011;31949;51.404;-0.038;2024-02-21T04:12:09;10.80;;;2.60;;
46230;SDS011;31949;51.404;-0.038;2024-02-21T04:14:36;9.70;;;2.63;;
46230;SDS011;31949;51.404;-0.038;2024-02-21T04:17:04;7.80;;;1.80;;
46230;SDS011;31949;51.404;-0.038;2024-02-21T04:19:32;7.28;;;2.80;;
46230;SDS011;31949;51.404;-0.038;2024-02-21T04:22:00;14.07;;;3.35;;
46230;SDS011;31949;51.404;-0.038;2024-02-21T04:24:28;5.90;;;1.70;;
46230;SDS011;31949;51.404;-0.038;2024-02-21T04:26:55;7.13;;;2.08;;
46230;SDS011;31949;51.404;-0.038;2024-02-21T04:29:22;10.75;;;2.05;;
46230;SDS011;31949;51.404;-0.038;2024-02-21T04:31:50;12.88;;;2.30;;
46230;SDS011;31949;51.404;-0.038;2024-02-21T04:34:17;12.45;;;2.05;;
46230;SDS011;31949;51.404;-0.038;2024-02-21T04:36:44;8.80;;;2.92;;
46230;SDS011;31949;51.404;-0.038;2024-02-21T04:39:11;14.10;;;2.80;;
46230;SDS011;31949;51.404;-0.038;2024-02-21T04:41:39;6.60;;;1.77;;
46230;SDS011;31949;51.404;-0.038;2024-02-21T04:44:06;5.38;;;2.03;;
46230;SDS011;31949;51.404;-0.038;2024-02-21T04:46:33;6.22;;;1.95;;
46230;SDS011;31949;51.404;-0.038;2024-02-21T04:49:00;7.18;;;2.03;;
46230;SDS011;31949;51.404;-0.038;2024-02-21T04:51:28;4.68;;;1.65;;
46230;SDS011;31949;51.404;-0.038;2024-02-21T04:53:55;10.13;;;2.75;;
46230;SDS011;31949;51.404;-0.038;2024-02-21T04:56:22;9.68;;;2.20;;
46230;SDS011;31949;51.404;-0.038;2024-02-21T04:58:49;8.73;;;2.30;;
46230;SDS011;31949;51.404;-0.038;2024-02-21T05:01:16;7.65;;;1.60;;
46230;SDS011;31949;51.404;-0.038;2024-02-21T05:03:44;7.30;;;2.50;;
46230;SDS011;31949;51.404;-0.038;2024-02-21T05:06:11;6.63;;;2.20;;
46230;SDS011;31949;51.404;-0.038;2024-02-21T05:08:39;5.13;;;3.08;;
46230;SDS011;31949;51.404;-0.038;2024-02-21T05:11:07;7.10;;;2.70;;
46230;SDS011;31949;51.404;-0.038;2024-02-21T05:13:34;9.45;;;2.10;;
46230;SDS011;31949;51.404;-0.038;2024-02-21T05:16:02;13.68;;;2.65;;
46230;SDS011;31949;51.404;-0.038;2024-02-21T05:18:29;4.93;;;1.98;;
46230;SDS011;31949;51.404;-0.038;2024-02-21T05:20:56;2.90;;;1.60;;
46230;SDS011;31949;51.404;-0.038;2024-02-21T05:23:24;4.70;;;1.73;;
46230;SDS011;31949;51.404;-0.038;2024-02-21T05:25:51;6.45;;;2.10;;
46230;SDS011;31949;51.404;-0.038;2024-02-21T05:28:18;5.75;;;1.98;;
46230;SDS011;31949;51.404;-0.038;2024-02-21T05:30:45;6.15;;;2.17;;
46230;SDS011;31949;51.404;-0.038;2024-02-21T05:33:13;9.32;;;1.70;;
46230;SDS011;31949;51.404;-0.038;2024-02-21T05:35:48;5.30;;;1.90;;
46230;SDS011;31949;51.404;-0.038;2024-02-21T05:38:16;10.25;;;1.73;;
46230;SDS011;31949;51.404;-0.038;2024-02-21T05:40:44;5.97;;;1.70;;
46230;SDS011;31949;51.404;-0.038;2024-02-21T05:43:13;4.07;;;1.65;;
46230;SDS011;31949;51.404;-0.038;2024-02-21T05:45:41;6.22;;;1.75;;
46230;SDS011;31949;51.404;-0.038;2024-02-21T05:48:08;4.65;;;2.00;;
46230;SDS011;31949;51.404;-0.038;2024-02-21T05:50:35;5.30;;;1.98;;
46230;SDS011;31949;51.404;-0.038;2024-02-21T05:53:03;5.20;;;1.90;;
46230;SDS011;31949;51.404;-0.038;2024-02-21T05:55:30;8.82;;;2.35;;
46230;SDS011;31949;51.404;-0.038;2024-02-21T05:57:57;7.38;;;1.63;;
46230;SDS011;31949;51.404;-0.038;2024-02-21T06:00:24;7.45;;;2.70;;
46230;SDS011;31949;51.404;-0.038;2024-02-21T06:02:52;9.60;;;1.70;;
46230;SDS011;31949;51.404;-0.038;2024-02-21T06:05:19;7.63;;;1.80;;
46230;SDS011;31949;51.404;-0.038;2024-02-21T06:07:47;4.93;;;2.10;;
46230;SDS011;31949;51.404;-0.038;2024-02-21T06:10:14;7.97;;;1.90;;
46230;SDS011;31949;51.404;-0.038;2024-02-21T06:12:41;6.60;;;1.35;;
46230;SDS011;31949;51.404;-0.038;2024-02-21T06:15:09;7.68;;;1.52;;
46230;SDS011;31949;51.404;-0.038;2024-02-21T06:17:36;4.63;;;2.35;;
46230;SDS011;31949;51.404;-0.038;2024-02-21T06:20:03;5.88;;;1.40;;
46230;SDS011;31949;51.404;-0.038;2024-02-21T06:22:31;8.40;;;1.75;;
46230;SDS011;31949;51.404;-0.038;2024-02-21T06:24:59;8.80;;;1.73;;
46230;SDS011;31949;51.404;-0.038;2024-02-21T06:27:26;4.57;;;1.30;;
46230;SDS011;31949;51.404;-0.038;2024-02-21T06:29:53;3.50;;;1.38;;
46230;SDS011;31949;51.404;-0.038;2024-02-21T06:32:20;3.17;;;1.10;;
46230;SDS011;31949;51.404;-0.038;2024-02-21T06:34:48;2.00;;;0.98;;
46230;SDS011;31949;51.404;-0.038;2024-02-21T06:37:15;2.05;;;0.73;;
46230;SDS011;31949;51.404;-0.038;2024-02-21T06:39:42;2.03;;;0.90;;
46230;SDS011;31949;51.404;-0.038;2024-02-21T06:42:10;1.23;;;0.63;;
46230;SDS011;31949;51.404;-0.038;2024-02-21T06:44:37;1.05;;;0.75;;
46230;SDS011;31949;51.404;-0.038;2024-02-21T06:47:07;5.22;;;1.75;;
46230;SDS011;31949;51.404;-0.038;2024-02-21T06:49:35;4.13;;;1.10;;
46230;SDS011;31949;51.404;-0.038;2024-02-21T06:52:05;2.53;;;1.00;;
46230;SDS011;31949;51.404;-0.038;2024-02-21T06:54:33;2.58;;;1.10;;
46230;SDS011;31949;51.404;-0.038;2024-02-21T06:57:00;2.58;;;0.93;;
46230;SDS011;31949;51.404;-0.038;2024-02-21T06:59:27;4.55;;;1.10;;
46230;SDS011;31949;51.404;-0.038;2024-02-21T07:01:54;5.30;;;1.25;;
46230;SDS011;31949;51.404;-0.038;2024-02-21T07:04:22;2.45;;;0.90;;
46230;SDS011;31949;51.404;-0.038;2024-02-21T07:06:50;2.70;;;1.23;;
46230;SDS011;31949;51.404;-0.038;2024-02-21T07:09:18;3.50;;;1.00;;
46230;SDS011;31949;51.404;-0.038;2024-02-21T07:11:45;1.33;;;0.75;;
46230;SDS011;31949;51.404;-0.038;2024-02-21T07:14:14;3.78;;;0.70;;
46230;SDS011;31949;51.404;-0.038;2024-02-21T07:16:42;3.13;;;0.73;;
46230;SDS011;31949;51.404;-0.038;2024-02-21T07:19:09;1.73;;;0.70;;
46230;SDS011;31949;51.404;-0.038;2024-02-21T07:21:36;2.40;;;0.93;;
46230;SDS011;31949;51.404;-0.038;2024-02-21T07:24:04;3.70;;;1.25;;
46230;SDS011;31949;51.404;-0.038;2024-02-21T07:26:32;3.03;;;1.20;;
46230;SDS011;31949;51.404;-0.038;2024-02-21T07:28:59;3.75;;;1.15;;
46230;SDS011;31949;51.404;-0.038;2024-02-21T07:31:26;3.67;;;1.15;;
46230;SDS011;31949;51.404;-0.038;2024-02-21T07:33:54;5.28;;;1.77;;
46230;SDS011;31949;51.404;-0.038;2024-02-21T07:36:27;1.92;;;1.23;;
46230;SDS011;31949;51.404;-0.038;2024-02-21T07:38:57;2.92;;;1.10;;
46230;SDS011;31949;51.404;-0.038;2024-02-21T07:41:27;4.80;;;1.38;;
46230;SDS011;31949;51.404;-0.038;2024-02-21T07:43:57;3.97;;;2.10;;
46230;SDS011;31949;51.404;-0.038;2024-02-21T07:46:25;3.00;;;1.58;;
46230;SDS011;31949;51.404;-0.038;2024-02-21T07:48:52;4.15;;;1.55;;
46230;SDS011;31949;51.404;-0.038;2024-02-21T07:51:19;3.55;;;1.40;;
46230;SDS011;31949;51.404;-0.038;2024-02-21T07:53:47;3.47;;;1.25;;
46230;SDS011;31949;51.404;-0.038;2024-02-21T07:56:15;4.18;;;1.45;;
46230;SDS011;31949;51.404;-0.038;2024-02-21T07:58:42;2.40;;;1.40;;
46230;SDS011;31949;51.404;-0.038;2024-02-21T08:01:10;4.75;;;1.70;;
46230;SDS011;31949;51.404;-0.038;2024-02-21T08:03:37;5.93;;;1.60;;
46230;SDS011;31949;51.404;-0.038;2024-02-21T08:06:05;7.45;;;2.08;;
46230;SDS011;31949;51.404;-0.038;2024-02-21T08:08:32;5.82;;;1.70;;
46230;SDS011;31949;51.404;-0.038;2024-02-21T08:10:59;4.35;;;1.83;;
46230;SDS011;31949;51.404;-0.038;2024-02-21T08:13:27;4.75;;;1.27;;
46230;SDS011;31949;51.404;-0.038;2024-02-21T08:15:55;8.75;;;1.73;;
46230;SDS011;31949;51.404;-0.038;2024-02-21T08:18:23;4.47;;;1.38;;
46230;SDS011;31949;51.404;-0.038;2024-02-21T08:20:51;5.50;;;1.65;;
46230;SDS011;31949;51.404;-0.038;2024-02-21T08:23:18;5.35;;;1.90;;
46230;SDS011;31949;51.404;-0.038;2024-02-21T08:25:46;6.40;;;1.98;;
46230;SDS011;31949;51.404;-0.038;2024-02-21T08:28:13;3.33;;;1.63;;
46230;SDS011;31949;51.404;-0.038;2024-02-21T08:30:40;4.85;;;1.55;;
46230;SDS011;31949;51.404;-0.038;2024-02-21T08:33:15;3.90;;;2.15;;
46230;SDS011;31949;51.404;-0.038;2024-02-21T08:35:43;4.38;;;1.63;;
46230;SDS011;31949;51.404;-0.038;2024-02-21T08:38:10;7.40;;;2.03;;
46230;SDS011;31949;51.404;-0.038;2024-02-21T08:40:38;3.72;;;1.73;;
46230;SDS011;31949;51.404;-0.038;2024-02-21T08:43:05;8.52;;;1.88;;
46230;SDS011;31949;51.404;-0.038;2024-02-21T08:45:33;11.65;;;2.35;;
46230;SDS011;31949;51.404;-0.038;2024-02-21T08:48:00;8.48;;;2.13;;
46230;SDS011;31949;51.404;-0.038;2024-02-21T08:50:27;5.47;;;1.75;;
46230;SDS011;31949;51.404;-0.038;2024-02-21T08:52:55;6.00;;;1.48;;
46230;SDS011;31949;51.404;-0.038;2024-02-21T08:55:23;5.15;;;1.70;;
46230;SDS011;31949;51.404;-0.038;2024-02-21T08:57:51;10.23;;;1.48;;
46230;SDS011;31949;51.404;-0.038;2024-02-21T09:00:18;7.07;;;1.33;;
46230;SDS011;31949;51.404;-0.038;2024-02-21T09:02:50;7.18;;;1.77;;
46230;SDS011;31949;51.404;-0.038;2024-02-21T09:05:17;1.58;;;0.90;;
46230;SDS011;31949;51.404;-0.038;2024-02-21T09:07:46;1.20;;;1.10;;
46230;SDS011;31949;51.404;-0.038;2024-02-21T09:10:13;5.45;;;1.63;;
46230;SDS011;31949;51.404;-0.038;2024-02-21T09:12:40;1.27;;;1.00;;
46230;SDS011;31949;51.404;-0.038;2024-02-21T09:15:08;3.63;;;1.83;;
46230;SDS011;31949;51.404;-0.038;2024-02-21T09:17:35;2.55;;;0.93;;
46230;SDS011;31949;51.404;-0.038;2024-02-21T09:20:03;6.50;;;1.30;;
46230;SDS011;31949;51.404;-0.038;2024-02-21T09:22:31;5.28;;;1.77;;
46230;SDS011;31949;51.404;-0.038;2024-02-21T09:25:01;2.65;;;1.73;;
46230;SDS011;31949;51.404;-0.038;2024-02-21T09:27:30;4.78;;;1.60;;
46230;SDS011;31949;51.404;-0.038;2024-02-21T09:29:57;3.03;;;1.15;;
46230;SDS011;31949;51.404;-0.038;2024-02-21T09:32:25;4.60;;;2.08;;
46230;SDS011;31949;51.404;-0.038;2024-02-21T09:34:53;4.97;;;1.27;;
46230;SDS011;31949;51.404;-0.038;2024-02-21T09:37:25;2.25;;;1.00;;
46230;SDS011;31949;51.404;-0.038;2024-02-21T09:39:53;3.83;;;1.40;;
46230;SDS011;31949;51.404;-0.038;2024-02-21T09:42:21;5.93;;;1.27;;
46230;SDS011;31949;51.404;-0.038;2024-02-21T09:44:48;5.20;;;1.50;;
46230;SDS011;31949;51.404;-0.038;2024-02-21T09:47:22;12.73;;;1.88;;
46230;SDS011;31949;51.404;-0.038;2024-02-21T09:49:54;4.25;;;1.70;;
46230;SDS011;31949;51.404;-0.038;2024-02-21T09:52:23;4.90;;;1.10;;
46230;SDS011;31949;51.404;-0.038;2024-02-21T09:54:53;6.05;;;1.48;;
46230;SDS011;31949;51.404;-0.038;2024-02-21T09:57:21;4.57;;;0.90;;
46230;SDS011;31949;51.404;-0.038;2024-02-21T09:59:49;6.03;;;1.58;;
46230;SDS011;31949;51.404;-0.038;2024-02-21T10:02:17;1.90;;;1.20;;
46230;SDS011;31949;51.404;-0.038;2024-02-21T10:04:45;4.32;;;1.67;;
46230;SDS011;31949;51.404;-0.038;2024-02-21T10:07:12;6.95;;;1.67;;
46230;SDS011;31949;51.404;-0.038;2024-02-21T10:09:40;4.30;;;1.00;;
46230;SDS011;31949;51.404;-0.038;2024-02-21T10:12:09;3.35;;;1.13;;
46230;SDS011;31949;51.404;-0.038;2024-02-21T10:14:39;6.72;;;1.25;;
46230;SDS011;31949;51.404;-0.038;2024-02-21T10:17:07;3.42;;;1.73;;
46230;SDS011;31949;51.404;-0.038;2024-02-21T10:19:37;7.35;;;1.10;;
46230;SDS011;31949;51.404;-0.038;2024-02-21T10:22:08;3.30;;;0.77;;
46230;SDS011;31949;51.404;-0.038;2024-02-21T10:24:36;4.35;;;1.30;;
46230;SDS011;31949;51.404;-0.038;2024-02-21T10:27:06;4.82;;;0.98;;
46230;SDS011;31949;51.404;-0.038;2024-02-21T10:29:35;4.93;;;1.17;;
46230;SDS011;31949;51.404;-0.038;2024-02-21T10:32:06;3.40;;;0.70;;
46230;SDS011;31949;51.404;-0.038;2024-02-21T10:34:40;1.85;;;1.05;;
46230;SDS011;31949;51.404;-0.038;2024-02-21T10:37:09;3.83;;;0.82;;
46230;SDS011;31949;51.404;-0.038;2024-02-21T10:39:40;2.70;;;0.88;;
46230;SDS011;31949;51.404;-0.038;2024-02-21T10:42:10;3.58;;;0.98;;
46230;SDS011;31949;51.404;-0.038;2024-02-21T10:44:39;1.70;;;0.70;;
46230;SDS011;31949;51.404;-0.038;2024-02-21T10:47:09;4.75;;;1.38;;
46230;SDS011;31949;51.404;-0.038;2024-02-21T10:49:39;6.30;;;1.17;;
46230;SDS011;31949;51.404;-0.038;2024-02-21T10:54:55;4.80;;;1.13;;
46230;SDS011;31949;51.404;-0.038;2024-02-21T10:57:25;4.38;;;1.15;;
46230;SDS011;31949;51.404;-0.038;2024-02-21T10:59:55;2.33;;;0.82;;
46230;SDS011;31949;51.404;-0.038;2024-02-21T11:02:25;2.42;;;1.27;;
46230;SDS011;31949;51.404;-0.038;2024-02-21T11:04:55;1.65;;;1.00;;
46230;SDS011;31949;51.404;-0.038;2024-02-21T11:07:24;5.35;;;1.20;;
46230;SDS011;31949;51.404;-0.038;2024-02-21T11:09:52;2.03;;;1.30;;
46230;SDS011;31949;51.404;-0.038;2024-02-21T11:12:22;2.60;;;0.95;;
46230;SDS011;31949;51.404;-0.038;2024-02-21T11:14:50;3.28;;;1.30;;
46230;SDS011;31949;51.404;-0.038;2024-02-21T11:17:18;2.10;;;0.95;;
46230;SDS011;31949;51.404;-0.038;2024-02-21T11:19:48;2.22;;;1.00;;
46230;SDS011;31949;51.404;-0.038;2024-02-21T11:22:19;1.35;;;0.95;;
46230;SDS011;31949;51.404;-0.038;2024-02-21T11:24:49;2.28;;;0.60;;
46230;SDS011;31949;51.404;-0.038;2024-02-21T11:27:20;3.05;;;0.70;;
46230;SDS011;31949;51.404;-0.038;2024-02-21T11:29:58;1.08;;;0.52;;
46230;SDS011;31949;51.404;-0.038;2024-02-21T11:32:26;2.40;;;1.23;;
46230;SDS011;31949;51.404;-0.038;2024-02-21T11:34:57;1.52;;;0.70;;
46230;SDS011;31949;51.404;-0.038;2024-02-21T11:37:34;0.70;;;0.40;;
46230;SDS011;31949;51.404;-0.038;2024-02-21T11:40:06;3.35;;;1.13;;
46230;SDS011;31949;51.404;-0.038;2024-02-21T11:42:38;1.40;;;0.95;;
46230;SDS011;31949;51.404;-0.038;2024-02-21T11:45:06;1.30;;;1.00;;
46230;SDS011;31949;51.404;-0.038;2024-02-21T11:47:36;1.92;;;0.73;;
46230;SDS011;31949;51.404;-0.038;2024-02-21T11:50:09;3.30;;;0.85;;
46230;SDS011;31949;51.404;-0.038;2024-02-21T11:52:38;3.00;;;0.68;;
46230;SDS011;31949;51.404;-0.038;2024-02-21T11:55:06;0.95;;;0.50;;
46230;SDS011;31949;51.404;-0.038;2024-02-21T11:57:37;2.22;;;0.60;;
46230;SDS011;31949;51.404;-0.038;2024-02-21T12:00:16;1.42;;;0.30;;
46230;SDS011;31949;51.404;-0.038;2024-02-21T12:02:47;1.25;;;0.40;;
46230;SDS011;31949;51.404;-0.038;2024-02-21T12:05:14;0.77;;;0.40;;
46230;SDS011;31949;51.404;-0.038;2024-02-21T12:07:42;1.75;;;0.30;;
46230;SDS011;31949;51.404;-0.038;2024-02-21T12:10:11;1.17;;;0.85;;
46230;SDS011;31949;51.404;-0.038;2024-02-21T12:12:38;3.03;;;1.10;;
46230;SDS011;31949;51.404;-0.038;2024-02-21T12:15:07;0.82;;;0.50;;
46230;SDS011;31949;51.404;-0.038;2024-02-21T12:17:35;2.20;;;0.47;;
46230;SDS011;31949;51.404;-0.038;2024-02-21T12:20:04;1.23;;;0.30;;
46230;SDS011;31949;51.404;-0.038;2024-02-21T12:22:37;1.52;;;0.28;;
46230;SDS011;31949;51.404;-0.038;2024-02-21T12:25:15;3.08;;;0.35;;
46230;SDS011;31949;51.404;-0.038;2024-02-21T12:27:47;1.17;;;0.63;;
46230;SDS011;31949;51.404;-0.038;2024-02-21T12:30:16;0.50;;;0.35;;
46230;SDS011;31949;51.404;-0.038;2024-02-21T12:32:43;1.65;;;0.60;;
46230;SDS011;31949;51.404;-0.038;2024-02-21T12:35:11;1.70;;;0.52;;
46230;SDS011;31949;51.404;-0.038;2024-02-21T12:37:38;1.25;;;0.50;;
46230;SDS011;31949;51.404;-0.038;2024-02-21T12:40:06;0.75;;;0.40;;
46230;SDS011;31949;51.404;-0.038;2024-02-21T12:42:35;0.93;;;0.30;;
46230;SDS011;31949;51.404;-0.038;2024-02-21T12:45:02;13.05;;;8.45;;
46230;SDS011;31949;51.404;-0.038;2024-02-21T12:47:30;1.38;;;0.60;;
46230;SDS011;31949;51.404;-0.038;2024-02-21T12:49:58;0.82;;;0.40;;
46230;SDS011;31949;51.404;-0.038;2024-02-21T12:52:25;2.33;;;0.50;;
46230;SDS011;31949;51.404;-0.038;2024-02-21T12:54:52;1.40;;;0.75;;
46230;SDS011;31949;51.404;-0.038;2024-02-21T12:57:23;0.40;;;0.30;;
46230;SDS011;31949;51.404;-0.038;2024-02-21T12:59:53;1.77;;;0.30;;
46230;SDS011;31949;51.404;-0.038;2024-02-21T13:02:21;1.30;;;0.50;;
46230;SDS011;31949;51.404;-0.038;2024-02-21T13:04:48;2.85;;;0.85;;
46230;SDS011;31949;51.404;-0.038;2024-02-21T13:07:16;0.85;;;0.30;;
46230;SDS011;31949;51.404;-0.038;2024-02-21T13:09:43;2.42;;;0.85;;
46230;SDS011;31949;51.404;-0.038;2024-02-21T13:12:10;0.28;;;0.20;;
46230;SDS011;31949;51.404;-0.038;2024-02-21T13:14:39;2.22;;;0.30;;
46230;SDS011;31949;51.404;-0.038;2024-02-21T13:17:06;2.25;;;0.47;;
46230;SDS011;31949;51.404;-0.038;2024-02-21T13:19:34;7.22;;;5.32;;
46230;SDS011;31949;51.404;-0.038;2024-02-21T13:22:01;2.13;;;1.65;;
46230;SDS011;31949;51.404;-0.038;2024-02-21T13:24:30;1.50;;;0.60;;
46230;SDS011;31949;51.404;-0.038;2024-02-21T13:26:58;2.25;;;0.52;;
46230;SDS011;31949;51.404;-0.038;2024-02-21T13:29:25;0.68;;;0.52;;
46230;SDS011;31949;51.404;-0.038;2024-02-21T13:31:53;1.25;;;0.40;;
46230;SDS011;31949;51.404;-0.038;2024-02-21T13:34:20;1.42;;;0.40;;
46230;SDS011;31949;51.404;-0.038;2024-02-21T13:36:48;0.75;;;0.20;;
46230;SDS011;31949;51.404;-0.038;2024-02-21T13:39:16;2.30;;;0.52;;
46230;SDS011;31949;51.404;-0.038;2024-02-21T13:41:46;1.13;;;0.35;;
46230;SDS011;31949;51.404;-0.038;2024-02-21T13:44:14;1.38;;;0.30;;
46230;SDS011;31949;51.404;-0.038;2024-02-21T13:46:42;1.63;;;0.47;;
46230;SDS011;31949;51.404;-0.038;2024-02-21T13:49:09;1.27;;;0.45;;
46230;SDS011;31949;51.404;-0.038;2024-02-21T13:51:37;0.60;;;0.40;;
46230;SDS011;31949;51.404;-0.038;2024-02-21T13:54:04;1.23;;;0.60;;
46230;SDS011;31949;51.404;-0.038;2024-02-21T13:56:32;1.83;;;0.95;;
46230;SDS011;31949;51.404;-0.038;2024-02-21T13:58:59;2.10;;;0.50;;
46230;SDS011;31949;51.404;-0.038;2024-02-21T14:01:27;0.68;;;0.25;;
46230;SDS011;31949;51.404;-0.038;2024-02-21T14:03:55;1.10;;;0.50;;
46230;SDS011;31949;51.404;-0.038;2024-02-21T14:06:22;1.95;;;0.50;;
46230;SDS011;31949;51.404;-0.038;2024-02-21T14:08:49;2.05;;;0.60;;
46230;SDS011;31949;51.404;-0.038;2024-02-21T14:11:17;1.17;;;0.50;;
46230;SDS011;31949;51.404;-0.038;2024-02-21T14:13:44;2.67;;;0.50;;
46230;SDS011;31949;51.404;-0.038;2024-02-21T14:16:12;0.40;;;0.40;;
46230;SDS011;31949;51.404;-0.038;2024-02-21T14:18:42;0.93;;;0.68;;
46230;SDS011;31949;51.404;-0.038;2024-02-21T14:21:10;0.70;;;0.40;;
46230;SDS011;31949;51.404;-0.038;2024-02-21T14:23:38;0.85;;;0.50;;
46230;SDS011;31949;51.404;-0.038;2024-02-21T14:26:05;2.38;;;0.68;;
46230;SDS011;31949;51.404;-0.038;2024-02-21T14:28:33;2.03;;;1.00;;
46230;SDS011;31949;51.404;-0.038;2024-02-21T14:31:00;2.30;;;0.60;;
46230;SDS011;31949;51.404;-0.038;2024-02-21T14:33:28;4.43;;;0.70;;
46230;SDS011;31949;51.404;-0.038;2024-02-21T14:35:56;2.65;;;0.50;;
46230;SDS011;31949;51.404;-0.038;2024-02-21T14:38:24;2.97;;;1.23;;
46230;SDS011;31949;51.404;-0.038;2024-02-21T14:40:51;2.58;;;0.60;;